sensor_id;sensor_type;location;lat;lon;timestamp;pressure;altitude;pressure_sealevel;temperature;humidity
46174;BME280;31897;52.420;13.498;2022-08-19T00:02:27;100600;;;22.4455;35.00259
46174;BME280;31897;52.420;13.498;2022-08-19T00:05:27;100600;;;22.4161;35.07563
46174;BME280;31897;52.420;13.498;2022-08-19T00:08:28;100600;;;22.44647;35.04488
46174;BME280;31897;52.420;13.498;2022-08-19T00:11:29;100600;;;22.47457;35.02019
46174;BME280;31897;52.420;13.498;2022-08-19T00:14:30;100600;;;22.47813;35.02617
46174;BME280;31897;52.420;13.498;2022-08-19T00:17:30;100600;;;22.49719;35.03791
46174;BME280;31897;52.420;13.498;2022-08-19T00:20:31;100600;;;22.46294;35.11105
46174;BME280;31897;52.420;13.498;2022-08-19T00:23:32;100600;;;22.38734;35.17886
46174;BME280;31897;52.420;13.498;2022-08-19T00:26:33;100600;;;22.32402;35.22226
46174;BME280;31897;52.420;13.498;2022-08-19T00:29:33;100600;;;22.29688;35.26502
46174;BME280;31897;52.420;13.498;2022-08-19T00:32:34;100600;;;22.29042;35.3195
46174;BME280;31897;52.420;13.498;2022-08-19T00:35:35;100600;;;22.27588;35.36203
46174;BME280;31897;52.420;13.498;2022-08-19T00:38:36;100500;;;22.18671;35.49641
46174;BME280;31897;52.420;13.498;2022-08-19T00:41:38;100500;;;22.0914;35.63084
46174;BME280;31897;52.420;13.498;2022-08-19T00:44:40;100500;;;22.06426;35.76409
46174;BME280;31897;52.420;13.498;2022-08-19T00:47:41;100600;;;21.97024;36.02512
46174;BME280;31897;52.420;13.498;2022-08-19T00:50:42;100600;;;21.95183;36.15213
46174;BME280;31897;52.420;13.498;2022-08-19T00:53:44;100600;;;21.91306;36.17083
46174;BME280;31897;52.420;13.498;2022-08-19T00:56:44;100600;;;21.74505;36.54733
46174;BME280;31897;52.420;13.498;2022-08-19T00:59:46;100600;;;21.79061;36.49239
46174;BME280;31897;52.420;13.498;2022-08-19T01:02:48;100600;;;21.7835;36.57693
46174;BME280;31897;52.420;13.498;2022-08-19T01:05:49;100600;;;21.76541;36.61338
46174;BME280;31897;52.420;13.498;2022-08-19T01:08:51;100600;;;21.89173;36.6538
46174;BME280;31897;52.420;13.498;2022-08-19T01:11:52;100600;;;21.8927;36.79253
46174;BME280;31897;52.420;13.498;2022-08-19T01:14:53;100600;;;21.85975;36.90156
46174;BME280;31897;52.420;13.498;2022-08-19T01:17:54;100600;;;21.70144;37.13887
46174;BME280;31897;52.420;13.498;2022-08-19T01:20:56;100600;;;21.59676;37.38135
46174;BME280;31897;52.420;13.498;2022-08-19T01:23:58;100600;;;21.50727;37.64761
46174;BME280;31897;52.420;13.498;2022-08-19T01:26:59;100600;;;21.41422;37.85957
46174;BME280;31897;52.420;13.498;2022-08-19T01:30:00;100500;;;21.31988;38.02326
46174;BME280;31897;52.420;13.498;2022-08-19T01:33:01;100500;;;21.23976;38.06027
46174;BME280;31897;52.420;13.498;2022-08-19T01:36:04;100500;;;21.16319;38.10927
46174;BME280;31897;52.420;13.498;2022-08-19T01:39:07;100500;;;21.0527;38.27296
46174;BME280;31897;52.420;13.498;2022-08-19T01:42:09;100500;;;20.95739;38.40031
46174;BME280;31897;52.420;13.498;2022-08-19T01:45:10;100500;;;20.9057;38.47303
46174;BME280;31897;52.420;13.498;2022-08-19T01:48:11;100500;;;20.75353;38.73313
46174;BME280;31897;52.420;13.498;2022-08-19T01:51:12;100500;;;20.6482;38.99864
46174;BME280;31897;52.420;13.498;2022-08-19T01:54:15;100500;;;20.71379;38.98605
46174;BME280;31897;52.420;13.498;2022-08-19T01:57:16;100500;;;20.81523;38.87691
46174;BME280;31897;52.420;13.498;2022-08-19T02:00:18;100500;;;20.78583;38.94332
46174;BME280;31897;52.420;13.498;2022-08-19T02:03:20;100500;;;20.79649;38.87106
46174;BME280;31897;52.420;13.498;2022-08-19T02:06:20;100500;;;20.82816;38.82868
46174;BME280;31897;52.420;13.498;2022-08-19T02:09:22;100500;;;20.8259;38.75652
46174;BME280;31897;52.420;13.498;2022-08-19T02:12:23;100500;;;20.81685;38.76262
46174;BME280;31897;52.420;13.498;2022-08-19T02:15:23;100500;;;20.84043;38.67818
46174;BME280;31897;52.420;13.498;2022-08-19T02:18:25;100500;;;20.83203;38.61812
46174;BME280;31897;52.420;13.498;2022-08-19T02:21:26;100500;;;20.81588;38.69646
46174;BME280;31897;52.420;13.498;2022-08-19T02:24:27;100500;;;20.76709;38.71496
46174;BME280;31897;52.420;13.498;2022-08-19T02:27:28;100500;;;20.82008;38.65432
46174;BME280;31897;52.420;13.498;2022-08-19T02:30:28;100500;;;20.81394;38.64235
46174;BME280;31897;52.420;13.498;2022-08-19T02:33:29;100400;;;21.03428;38.35139
46174;BME280;31897;52.420;13.498;2022-08-19T02:36:30;100500;;;20.87016;38.4072
46174;BME280;31897;52.420;13.498;2022-08-19T02:39:31;100500;;;20.65983;38.74602
46174;BME280;31897;52.420;13.498;2022-08-19T02:42:32;100500;;;20.64853;38.81226
46174;BME280;31897;52.420;13.498;2022-08-19T02:45:33;100500;;;20.67986;38.79995
46174;BME280;31897;52.420;13.498;2022-08-19T02:48:34;100500;;;20.65757;38.86629
46174;BME280;31897;52.420;13.498;2022-08-19T02:51:36;100500;;;20.65628;38.85428
46174;BME280;31897;52.420;13.498;2022-08-19T02:54:37;100500;;;20.65208;38.91444
46174;BME280;31897;52.420;13.498;2022-08-19T02:57:38;100500;;;20.69957;38.84186
46174;BME280;31897;52.420;13.498;2022-08-19T03:00:42;100500;;;20.69569;38.92006
46174;BME280;31897;52.420;13.498;2022-08-19T03:03:44;100500;;;20.71573;38.88381
46174;BME280;31897;52.420;13.498;2022-08-19T03:06:45;100500;;;20.71508;38.84774
46174;BME280;31897;52.420;13.498;2022-08-19T03:09:46;100500;;;20.74383;38.82943
46174;BME280;31897;52.420;13.498;2022-08-19T03:12:47;100500;;;20.70409;38.78169
46174;BME280;31897;52.420;13.498;2022-08-19T03:15:48;100500;;;20.64497;38.80628
46174;BME280;31897;52.420;13.498;2022-08-19T03:18:49;100500;;;20.62849;38.86054
46174;BME280;31897;52.420;13.498;2022-08-19T03:21:50;100500;;;20.59748;38.87885
46174;BME280;31897;52.420;13.498;2022-08-19T03:24:51;100500;;;20.5516;38.95138
46174;BME280;31897;52.420;13.498;2022-08-19T03:27:51;100500;;;20.5781;38.93312
46174;BME280;31897;52.420;13.498;2022-08-19T03:33:53;100500;;;20.73253;38.82954
46174;BME280;31897;52.420;13.498;2022-08-19T03:36:54;100500;;;20.76709;38.62475
46174;BME280;31897;52.420;13.498;2022-08-19T03:39:55;100500;;;20.63786;38.76426
46174;BME280;31897;52.420;13.498;2022-08-19T03:42:55;100500;;;20.44822;38.98834
46174;BME280;31897;52.420;13.498;2022-08-19T03:46:00;100500;;;20.46566;39.10838
46174;BME280;31897;52.420;13.498;2022-08-19T03:49:03;100500;;;20.707;38.68545
46174;BME280;31897;52.420;13.498;2022-08-19T03:52:12;100500;;;20.707;38.61931
46174;BME280;31897;52.420;13.498;2022-08-19T03:55:12;100500;;;20.7364;38.5649
46174;BME280;31897;52.420;13.498;2022-08-19T03:58:13;100500;;;20.65499;38.64986
46174;BME280;31897;52.420;13.498;2022-08-19T04:01:18;100500;;;20.56905;38.72281
46174;BME280;31897;52.420;13.498;2022-08-19T04:04:19;100500;;;20.37456;38.9409
46174;BME280;31897;52.420;13.498;2022-08-19T04:07:20;100500;;;20.34193;39.07936
46174;BME280;31897;52.420;13.498;2022-08-19T04:10:21;100500;;;20.51025;38.93371
46174;BME280;31897;52.420;13.498;2022-08-19T04:13:22;100500;;;20.68794;38.66158
46174;BME280;31897;52.420;13.498;2022-08-19T04:16:24;100500;;;20.83074;38.41963
46174;BME280;31897;52.420;13.498;2022-08-19T04:19:25;100500;;;20.78325;38.4622
46174;BME280;31897;52.420;13.498;2022-08-19T04:22:26;100500;;;20.84173;38.35335
46174;BME280;31897;52.420;13.498;2022-08-19T04:25:27;100500;;;20.8931;38.31673
46174;BME280;31897;52.420;13.498;2022-08-19T04:28:28;100500;;;21.06368;38.10432
46174;BME280;31897;52.420;13.498;2022-08-19T04:31:30;100500;;;21.14316;37.97704
46174;BME280;31897;52.420;13.498;2022-08-19T04:34:30;100500;;;21.07337;37.94771
46174;BME280;31897;52.420;13.498;2022-08-19T04:37:31;100500;;;20.87694;38.16649
46174;BME280;31897;52.420;13.498;2022-08-19T04:40:32;100500;;;20.74706;38.37836
46174;BME280;31897;52.420;13.498;2022-08-19T04:43:34;100500;;;20.75159;38.48056
46174;BME280;31897;52.420;13.498;2022-08-19T04:46:35;100500;;;20.77226;38.4563
46174;BME280;31897;52.420;13.498;2022-08-19T04:49:36;100500;;;20.70603;38.5652
46174;BME280;31897;52.420;13.498;2022-08-19T04:55:39;100500;;;20.80619;38.51611
46174;BME280;31897;52.420;13.498;2022-08-19T04:58:41;100500;;;20.80619;38.40784
46174;BME280;31897;52.420;13.498;2022-08-19T05:01:43;100500;;;20.76419;38.50449
46174;BME280;31897;52.420;13.498;2022-08-19T05:04:43;100500;;;20.80393;38.51012
46174;BME280;31897;52.420;13.498;2022-08-19T05:07:44;100500;;;20.9926;38.3458
46174;BME280;31897;52.420;13.498;2022-08-19T05:10:46;100500;;;21.1997;38.10285
46174;BME280;31897;52.420;13.498;2022-08-19T05:13:47;100500;;;21.27465;37.87923
46174;BME280;31897;52.420;13.498;2022-08-19T05:16:48;100500;;;21.16707;38.03698
46174;BME280;31897;52.420;13.498;2022-08-19T05:19:49;100500;;;21.09825;38.17016
46174;BME280;31897;52.420;13.498;2022-08-19T05:22:49;100500;;;21.02426;38.23715
46174;BME280;31897;52.420;13.498;2022-08-19T05:25:50;100500;;;20.97354;38.36404
46174;BME280;31897;52.420;13.498;2022-08-19T05:28:52;100500;;;20.94834;38.41245
46174;BME280;31897;52.420;13.498;2022-08-19T05:31:53;100500;;;20.92153;38.43075
46174;BME280;31897;52.420;13.498;2022-08-19T05:34:54;100500;;;20.92346;38.4548
46174;BME280;31897;52.420;13.498;2022-08-19T05:37:55;100500;;;20.90053;38.57535
46174;BME280;31897;52.420;13.498;2022-08-19T05:40:56;100500;;;20.96546;38.52659
46174;BME280;31897;52.420;13.498;2022-08-19T05:43:57;100500;;;21.02103;38.40569
46174;BME280;31897;52.420;13.498;2022-08-19T05:46:57;100500;;;21.03234;38.44168
46174;BME280;31897;52.420;13.498;2022-08-19T05:49:58;100500;;;21.09599;38.48318
46174;BME280;31897;52.420;13.498;2022-08-19T05:52:59;100500;;;21.11343;38.58532
46174;BME280;31897;52.420;13.498;2022-08-19T05:56:03;100500;;;21.1186;38.47091
46174;BME280;31897;52.420;13.498;2022-08-19T05:59:04;100500;;;21.15285;38.46455
46174;BME280;31897;52.420;13.498;2022-08-19T06:02:05;100500;;;21.14025;38.51283
46174;BME280;31897;52.420;13.498;2022-08-19T06:05:07;100500;;;21.13928;38.57905
46174;BME280;31897;52.420;13.498;2022-08-19T06:08:08;100500;;;21.12765;38.56111
46174;BME280;31897;52.420;13.498;2022-08-19T06:11:12;100500;;;21.17773;38.48838
46174;BME280;31897;52.420;13.498;2022-08-19T06:14:15;100500;;;21.36964;38.32988
46174;BME280;31897;52.420;13.498;2022-08-19T06:17:16;100500;;;21.51114;38.08741
46174;BME280;31897;52.420;13.498;2022-08-19T06:20:17;100500;;;21.47528;38.09986
46174;BME280;31897;52.420;13.498;2022-08-19T06:23:18;100500;;;21.45461;38.17237
46174;BME280;31897;52.420;13.498;2022-08-19T06:26:20;100500;;;21.44879;38.17846
46174;BME280;31897;52.420;13.498;2022-08-19T06:29:23;100500;;;21.41907;38.29322
46174;BME280;31897;52.420;13.498;2022-08-19T06:32:24;100500;;;21.51179;38.12958
46174;BME280;31897;52.420;13.498;2022-08-19T06:35:24;100500;;;21.55282;38.06888
46174;BME280;31897;52.420;13.498;2022-08-19T06:38:25;100500;;;21.54894;37.94841
46174;BME280;31897;52.420;13.498;2022-08-19T06:41:26;100500;;;21.5441;37.97257
46174;BME280;31897;52.420;13.498;2022-08-19T06:44:28;100500;;;21.52633;37.99084
46174;BME280;31897;52.420;13.498;2022-08-19T06:47:29;100500;;;21.50145;38.11764
46174;BME280;31897;52.420;13.498;2022-08-19T06:50:30;100500;;;21.54474;38.09307
46174;BME280;31897;52.420;13.498;2022-08-19T06:53:30;100500;;;21.58739;38.08055
46174;BME280;31897;52.420;13.498;2022-08-19T06:56:32;100500;;;21.60645;38.10445
46174;BME280;31897;52.420;13.498;2022-08-19T06:59:33;100500;;;21.62164;38.10428
46174;BME280;31897;52.420;13.498;2022-08-19T07:02:34;100500;;;21.61744;38.11035
46174;BME280;31897;52.420;13.498;2022-08-19T07:05:39;100500;;;21.65427;38.10392
46174;BME280;31897;52.420;13.498;2022-08-19T07:08:40;100500;;;21.66041;38.18823
46174;BME280;31897;52.420;13.498;2022-08-19T07:11:43;100500;;;21.73536;38.07289
46174;BME280;31897;52.420;13.498;2022-08-19T07:14:44;100500;;;21.81096;37.95147
46174;BME280;31897;52.420;13.498;2022-08-19T07:17:44;100500;;;21.86169;37.92677
46174;BME280;31897;52.420;13.498;2022-08-19T07:20:45;100500;;;21.9192;37.84771
46174;BME280;31897;52.420;13.498;2022-08-19T07:23:46;100500;;;21.97703;37.82894
46174;BME280;31897;52.420;13.498;2022-08-19T07:26:47;100500;;;21.99221;37.76241
46174;BME280;31897;52.420;13.498;2022-08-19T07:29:48;100500;;;21.97218;37.73249
46174;BME280;31897;52.420;13.498;2022-08-19T07:32:49;100600;;;21.92727;37.90189
46174;BME280;31897;52.420;13.498;2022-08-19T07:35:49;100600;;;21.97153;37.98582
46174;BME280;31897;52.420;13.498;2022-08-19T07:38:51;100600;;;22.10141;37.85161
46174;BME280;31897;52.420;13.498;2022-08-19T07:41:52;100600;;;22.21708;37.7718
46174;BME280;31897;52.420;13.498;2022-08-19T07:44:53;100600;;;22.30851;37.63791
46174;BME280;31897;52.420;13.498;2022-08-19T07:47:54;100600;;;22.36053;37.48635
46174;BME280;31897;52.420;13.498;2022-08-19T07:50:55;100600;;;22.40479;37.3771
46174;BME280;31897;52.420;13.498;2022-08-19T07:53:56;100600;;;22.42611;37.32852
46174;BME280;31897;52.420;13.498;2022-08-19T07:56:57;100600;;;22.4329;37.31636
46174;BME280;31897;52.420;13.498;2022-08-19T07:59:58;100600;;;22.51237;37.23681
46174;BME280;31897;52.420;13.498;2022-08-19T08:02:59;100600;;;22.63321;37.02979
46174;BME280;31897;52.420;13.498;2022-08-19T08:06:00;100600;;;22.72496;36.8412
46174;BME280;31897;52.420;13.498;2022-08-19T08:09:01;100600;;;22.77827;36.76791
46174;BME280;31897;52.420;13.498;2022-08-19T08:12:03;100600;;;22.82512;36.79142
46174;BME280;31897;52.420;13.498;2022-08-19T08:15:07;100600;;;22.93335;36.62057
46174;BME280;31897;52.420;13.498;2022-08-19T08:18:09;100600;;;23.07196;36.40683
46174;BME280;31897;52.420;13.498;2022-08-19T08:21:09;100600;;;23.23253;36.28941
46174;BME280;31897;52.420;13.498;2022-08-19T08:24:10;100600;;;23.42477;36.03215
46174;BME280;31897;52.420;13.498;2022-08-19T08:27:11;100600;;;23.60893;35.81112
46174;BME280;31897;52.420;13.498;2022-08-19T08:30:13;100600;;;23.79147;35.49902
46174;BME280;31897;52.420;13.498;2022-08-19T08:33:17;100600;;;23.75496;35.56631
46174;BME280;31897;52.420;13.498;2022-08-19T08:36:20;100600;;;23.75851;35.45112
46174;BME280;31897;52.420;13.498;2022-08-19T08:39:22;100600;;;23.77241;35.37816
46174;BME280;31897;52.420;13.498;2022-08-19T08:42:24;100600;;;23.86513;35.27348
46174;BME280;31897;52.420;13.498;2022-08-19T08:45:27;100600;;;23.985;35.04092
46174;BME280;31897;52.420;13.498;2022-08-19T08:48:32;100600;;;24.02926;34.90063
46174;BME280;31897;52.420;13.498;2022-08-19T08:51:37;100600;;;24.05899;34.76665
46174;BME280;31897;52.420;13.498;2022-08-19T08:54:40;100600;;;24.10099;34.57782
46174;BME280;31897;52.420;13.498;2022-08-19T08:57:43;100600;;;24.13168;34.44983
46174;BME280;31897;52.420;13.498;2022-08-19T09:00:48;100600;;;24.17756;34.23657
46174;BME280;31897;52.420;13.498;2022-08-19T09:06:51;100600;;;24.64216;33.40705
46174;BME280;31897;52.420;13.498;2022-08-19T09:09:56;100600;;;24.72003;33.48429
46174;BME280;31897;52.420;13.498;2022-08-19T09:13:05;100600;;;24.73812;33.36844
46174;BME280;31897;52.420;13.498;2022-08-19T09:16:10;100600;;;24.74297;33.38656
46174;BME280;31897;52.420;13.498;2022-08-19T09:19:12;100600;;;24.70194;33.49076
46174;BME280;31897;52.420;13.498;2022-08-19T09:22:13;100600;;;24.58465;33.61484
46174;BME280;31897;52.420;13.498;2022-08-19T09:25:15;100600;;;24.50937;33.53148
46174;BME280;31897;52.420;13.498;2022-08-19T09:28:17;100600;;;24.48094;33.51389
46174;BME280;31897;52.420;13.498;2022-08-19T09:31:19;100600;;;24.45606;33.50837
46174;BME280;31897;52.420;13.498;2022-08-19T09:34:20;100600;;;24.45671;33.50228
46174;BME280;31897;52.420;13.498;2022-08-19T09:37:21;100600;;;24.4118;33.57613
46174;BME280;31897;52.420;13.498;2022-08-19T09:40:22;100600;;;24.41148;33.51542
46174;BME280;31897;52.420;13.498;2022-08-19T09:43:23;100600;;;24.34783;33.64431
46174;BME280;31897;52.420;13.498;2022-08-19T09:46:24;100600;;;24.29484;33.68795
46174;BME280;31897;52.420;13.498;2022-08-19T09:49:25;100600;;;24.32101;33.61454
46174;BME280;31897;52.420;13.498;2022-08-19T09:52:26;100600;;;24.31875;33.54782
46174;BME280;31897;52.420;13.498;2022-08-19T09:55:27;100600;;;24.34234;33.53516
46174;BME280;31897;52.420;13.498;2022-08-19T09:58:28;100600;;;24.3698;33.47385
46174;BME280;31897;52.420;13.498;2022-08-19T10:01:29;100600;;;24.43442;33.38741
46174;BME280;31897;52.420;13.498;2022-08-19T10:04:30;100600;;;24.53134;33.3488
46174;BME280;31897;52.420;13.498;2022-08-19T10:07:31;100600;;;24.6483;33.18214
46174;BME280;31897;52.420;13.498;2022-08-19T10:10:35;100600;;;24.78271;33.05144
46174;BME280;31897;52.420;13.498;2022-08-19T10:13:35;100600;;;24.80856;33.06907
46174;BME280;31897;52.420;13.498;2022-08-19T10:16:37;100600;;;24.87091;33.05546
46174;BME280;31897;52.420;13.498;2022-08-19T10:19:38;100600;;;24.91711;33.06047
46174;BME280;31897;52.420;13.498;2022-08-19T10:22:38;100600;;;24.92907;32.94468
46174;BME280;31897;52.420;13.498;2022-08-19T10:25:39;100600;;;24.86542;32.89755
46174;BME280;31897;52.420;13.498;2022-08-19T10:28:40;100600;;;24.72294;33.02852
46174;BME280;31897;52.420;13.498;2022-08-19T10:31:41;100600;;;24.64152;33.06686
46174;BME280;31897;52.420;13.498;2022-08-19T10:34:42;100600;;;24.54007;33.1178
46174;BME280;31897;52.420;13.498;2022-08-19T10:37:42;100600;;;24.5042;33.1247
46174;BME280;31897;52.420;13.498;2022-08-19T10:40:43;100600;;;24.48353;33.09481
46174;BME280;31897;52.420;13.498;2022-08-19T10:43:44;100600;;;24.55364;33.0689
46174;BME280;31897;52.420;13.498;2022-08-19T10:46:45;100600;;;24.73974;32.79721
46174;BME280;31897;52.420;13.498;2022-08-19T10:49:48;100600;;;24.89967;32.60494
46174;BME280;31897;52.420;13.498;2022-08-19T10:52:49;100600;;;24.82826;32.60667
46174;BME280;31897;52.420;13.498;2022-08-19T10:55:50;100600;;;24.62989;32.78159
46174;BME280;31897;52.420;13.498;2022-08-19T10:58:51;100600;;;24.54879;32.95967
46174;BME280;31897;52.420;13.498;2022-08-19T11:01:52;100600;;;24.36818;33.07925
46174;BME280;31897;52.420;13.498;2022-08-19T11:04:53;100600;;;24.08677;33.3891
46174;BME280;31897;52.420;13.498;2022-08-19T11:07:54;100600;;;23.92749;33.60491
46174;BME280;31897;52.420;13.498;2022-08-19T11:10:55;100600;;;23.90778;33.73876
46174;BME280;31897;52.420;13.498;2022-08-19T11:13:55;100600;;;23.99889;33.76714
46174;BME280;31897;52.420;13.498;2022-08-19T11:16:56;100600;;;24.06189;33.66872
46174;BME280;31897;52.420;13.498;2022-08-19T11:19:57;100600;;;24.1152;33.57049
46174;BME280;31897;52.420;13.498;2022-08-19T11:22:58;100600;;;24.14751;33.58799
46174;BME280;31897;52.420;13.498;2022-08-19T11:25:58;100600;;;24.15333;33.54539
46174;BME280;31897;52.420;13.498;2022-08-19T11:28:59;100600;;;24.10196;33.55258
46174;BME280;31897;52.420;13.498;2022-08-19T11:32:02;100600;;;24.06545;33.55945
46174;BME280;31897;52.420;13.498;2022-08-19T11:35:04;100600;;;24.03023;33.57841
46174;BME280;31897;52.420;13.498;2022-08-19T11:38:04;100600;;;24.00859;33.50609
46174;BME280;31897;52.420;13.498;2022-08-19T11:41:06;100600;;;23.97305;33.58573
46174;BME280;31897;52.420;13.498;2022-08-19T11:44:07;100600;;;23.95398;33.58008
46174;BME280;31897;52.420;13.498;2022-08-19T11:47:08;100600;;;24.08548;33.4134
46174;BME280;31897;52.420;13.498;2022-08-19T11:50:09;100600;;;24.22764;33.26457
46174;BME280;31897;52.420;13.498;2022-08-19T11:53:10;100600;;;24.30001;33.12331
46174;BME280;31897;52.420;13.498;2022-08-19T11:56:11;100600;;;24.34427;32.97659
46174;BME280;31897;52.420;13.498;2022-08-19T11:59:12;100600;;;24.38337;32.93317
46174;BME280;31897;52.420;13.498;2022-08-19T12:02:12;100600;;;24.49807;32.81509
46174;BME280;31897;52.420;13.498;2022-08-19T12:05:13;100600;;;24.55558;32.75298
46174;BME280;31897;52.420;13.498;2022-08-19T12:08:14;100600;;;24.55267;32.69838
46174;BME280;31897;52.420;13.498;2022-08-19T12:11:15;100600;;;24.59564;32.70343
46174;BME280;31897;52.420;13.498;2022-08-19T12:14:16;100600;;;24.64572;32.59893
46174;BME280;31897;52.420;13.498;2022-08-19T12:17:16;100600;;;24.73812;32.4873
46174;BME280;31897;52.420;13.498;2022-08-19T12:20:17;100600;;;24.72164;32.37831
46174;BME280;31897;52.420;13.498;2022-08-19T12:23:18;100600;;;24.72972;32.47535
46174;BME280;31897;52.420;13.498;2022-08-19T12:26:20;100600;;;24.78885;32.4739
46174;BME280;31897;52.420;13.498;2022-08-19T12:29:21;100600;;;24.9365;32.30611
46174;BME280;31897;52.420;13.498;2022-08-19T12:32:22;100600;;;24.96526;32.26283
46174;BME280;31897;52.420;13.498;2022-08-19T12:35:23;100600;;;24.9449;32.1782
46174;BME280;31897;52.420;13.498;2022-08-19T12:38:23;100600;;;24.98238;32.17726
46174;BME280;31897;52.420;13.498;2022-08-19T12:41:24;100600;;;24.88513;32.21619
46174;BME280;31897;52.420;13.498;2022-08-19T12:44:25;100600;;;24.86574;32.29571
46174;BME280;31897;52.420;13.498;2022-08-19T12:47:26;100600;;;24.86445;32.25927
46174;BME280;31897;52.420;13.498;2022-08-19T12:50:27;100600;;;24.99046;32.02501
46174;BME280;31897;52.420;13.498;2022-08-19T12:53:28;100600;;;25.18173;31.72197
46174;BME280;31897;52.420;13.498;2022-08-19T12:56:28;100600;;;25.64957;31.20403
46174;BME280;31897;52.420;13.498;2022-08-19T12:59:29;100600;;;25.60401;31.32711
46174;BME280;31897;52.420;13.498;2022-08-19T13:02:30;100600;;;25.52905;31.33525
46174;BME280;31897;52.420;13.498;2022-08-19T13:05:31;100600;;;25.49804;31.33
46174;BME280;31897;52.420;13.498;2022-08-19T13:08:32;100600;;;25.38592;31.41829
46174;BME280;31897;52.420;13.498;2022-08-19T13:11:33;100600;;;25.34327;31.38901
46174;BME280;31897;52.420;13.498;2022-08-19T13:14:34;100600;;;25.18948;31.41751
46174;BME280;31897;52.420;13.498;2022-08-19T13:17:35;100600;;;25.13488;31.39464
46174;BME280;31897;52.420;13.498;2022-08-19T13:20:36;100600;;;25.15394;31.51583
46174;BME280;31897;52.420;13.498;2022-08-19T13:23:37;100600;;;25.1772;31.42393
46174;BME280;31897;52.420;13.498;2022-08-19T13:26:38;100600;;;25.14425;31.35179
46174;BME280;31897;52.420;13.498;2022-08-19T13:29:39;100600;;;25.14393;31.3518
46174;BME280;31897;52.420;13.498;2022-08-19T13:32:40;100600;;;25.07995;31.31703
46174;BME280;31897;52.420;13.498;2022-08-19T13:35:42;100600;;;25.04926;31.32395
46174;BME280;31897;52.420;13.498;2022-08-19T13:41:44;100600;;;25.05346;31.31775
46174;BME280;31897;52.420;13.498;2022-08-19T13:44:46;100600;;;24.98206;31.27102
46174;BME280;31897;52.420;13.498;2022-08-19T13:47:47;100600;;;24.76849;31.41058
46174;BME280;31897;52.420;13.498;2022-08-19T13:50:48;100600;;;24.66187;31.57756
46174;BME280;31897;52.420;13.498;2022-08-19T13:53:49;100600;;;24.48126;31.55802
46174;BME280;31897;52.420;13.498;2022-08-19T13:56:49;100600;;;24.48288;31.64911
46174;BME280;31897;52.420;13.498;2022-08-19T13:59:50;100600;;;24.55364;31.58649
46174;BME280;31897;52.420;13.498;2022-08-19T14:02:51;100600;;;24.79175;31.34308
46174;BME280;31897;52.420;13.498;2022-08-19T14:05:53;100600;;;25.03117;31.28185
46174;BME280;31897;52.420;13.498;2022-08-19T14:08:53;100600;;;25.10871;31.08503
46174;BME280;31897;52.420;13.498;2022-08-19T14:11:54;100600;;;24.96493;31.11941
46174;BME280;31897;52.420;13.498;2022-08-19T14:14:55;100600;;;24.75945;31.42907
46174;BME280;31897;52.420;13.498;2022-08-19T14:17:55;100600;;;24.67932;31.51023
46174;BME280;31897;52.420;13.498;2022-08-19T14:20:56;100600;;;24.40954;31.69356
46174;BME280;31897;52.420;13.498;2022-08-19T14:23:57;100600;;;24.36334;31.82231
46174;BME280;31897;52.420;13.498;2022-08-19T14:26:58;100600;;;24.42214;31.78435
46174;BME280;31897;52.420;13.498;2022-08-19T14:29:58;100600;;;24.43732;31.8447
46174;BME280;31897;52.420;13.498;2022-08-19T14:33:00;100600;;;24.53748;31.78136
46174;BME280;31897;52.420;13.498;2022-08-19T14:36:02;100600;;;24.6273;31.68787
46174;BME280;31897;52.420;13.498;2022-08-19T14:39:03;100600;;;24.63021;31.70604
46174;BME280;31897;52.420;13.498;2022-08-19T14:42:06;100600;;;24.51745;31.79403
46174;BME280;31897;52.420;13.498;2022-08-19T14:45:08;100600;;;24.51487;31.75157
46174;BME280;31897;52.420;13.498;2022-08-19T14:48:09;100600;;;24.43216;31.86306
46174;BME280;31897;52.420;13.498;2022-08-19T14:51:09;100600;;;24.38595;31.90069
46174;BME280;31897;52.420;13.498;2022-08-19T14:54:10;100600;;;24.35009;32.0413
46174;BME280;31897;52.420;13.498;2022-08-19T14:57:11;100700;;;24.34363;31.96251
46174;BME280;31897;52.420;13.498;2022-08-19T15:00:13;100700;;;24.35106;31.95017
46174;BME280;31897;52.420;13.498;2022-08-19T15:03:14;100700;;;24.28838;31.96392
46174;BME280;31897;52.420;13.498;2022-08-19T15:06:15;100700;;;24.2593;32.09217
46174;BME280;31897;52.420;13.498;2022-08-19T15:09:16;100700;;;24.28063;32.10985
46174;BME280;31897;52.420;13.498;2022-08-19T15:12:17;100700;;;24.35461;32.00474
46174;BME280;31897;52.420;13.498;2022-08-19T15:15:17;100700;;;24.36334;31.99845